Terminal Aerodrome Forecast
Issued by NWS Albuquerque, NM

Home | Current Version | Previous Version | Text Only | Print | Product List | Glossary On
Versions: 1 2 3 4 5 6 7 8 9 10 11 12
538
FTUS45 KABQ 132343
TAFABQ
TAF
KABQ 132343Z 1400/1424 VRB05KT P6SM SKC
      TEMPO 1400/1401 27009G16KT
     FM140900 35006KT P6SM FEW250
     FM142000 34015G25KT P6SM FEW250=

USA.gov is the U.S. government's official web portal to all federal, state and local government web resources and services.